createdAt,value
2022-11-16T02:46:53.955Z,58.18
2022-11-16T06:48:02.505Z,57.61
2022-11-16T06:50:42.287Z,57.69
2022-11-16T06:53:13.298Z,57.69
2022-11-16T07:12:40.822Z,57.16
2022-11-16T07:42:08.939Z,57.62
2022-11-16T07:47:54.910Z,57.35
2022-11-16T07:50:24.616Z,57.47
2022-11-16T08:08:37.122Z,57.57
2022-11-16T08:11:12.095Z,58.03
2022-11-16T08:13:46.122Z,58.38
2022-11-16T08:16:23.937Z,57.89
2022-11-16T08:18:58.563Z,57.69
2022-11-16T08:21:27.729Z,57.99
2022-11-16T08:23:58.895Z,57.83
2022-11-16T08:26:47.270Z,57.95
2022-11-16T08:34:52.478Z,57.90
2022-11-16T08:37:47.446Z,57.90
2022-11-16T08:40:45.792Z,58.44
2022-11-16T08:43:58.040Z,57.95
2022-11-16T08:46:29.050Z,57.91
2022-11-16T08:49:03.650Z,58.22
2022-11-16T09:05:18.035Z,58.41
2022-11-16T09:17:04.491Z,58.44
2022-11-16T09:22:41.710Z,57.96
2022-11-16T09:25:14.339Z,57.77
2022-11-16T09:27:43.078Z,57.92
2022-11-16T09:30:30.195Z,58.00
2022-11-16T09:32:59.991Z,57.90
2022-11-16T09:35:30.524Z,58.04
2022-11-16T09:38:06.205Z,58.12
2022-11-16T09:40:42.593Z,57.84
2022-11-16T09:43:26.296Z,58.28
2022-11-16T09:46:03.723Z,58.53
2022-11-16T09:51:39.073Z,58.58
2022-11-16T09:54:14.028Z,58.66
2022-11-16T09:56:51.149Z,58.80
2022-11-16T09:59:24.895Z,58.82
2022-11-16T10:02:10.740Z,58.53
2022-11-16T10:08:35.841Z,58.23
2022-11-16T10:16:01.324Z,58.16
2022-11-16T10:21:53.666Z,57.68
2022-11-16T10:24:38.761Z,57.71
2022-11-16T10:27:26.208Z,57.80
2022-11-16T10:30:05.584Z,57.74
2022-11-16T10:32:37.753Z,57.81
2022-11-16T10:35:14.875Z,57.76
2022-11-16T10:37:48.151Z,58.03
2022-11-16T10:40:24.390Z,58.02
2022-11-16T10:43:11.009Z,57.86
2022-11-16T10:45:41.334Z,57.84
2022-11-16T10:48:39.937Z,57.74
2022-11-16T10:51:16.825Z,57.71
2022-11-16T10:53:45.302Z,57.69
2022-11-16T10:56:30.371Z,57.90
2022-11-16T10:59:18.612Z,57.77
2022-11-16T11:01:51.918Z,57.61
2022-11-16T11:04:23.830Z,57.56
2022-11-16T11:06:57.737Z,57.52
2022-11-16T11:09:32.812Z,57.56
2022-11-16T11:12:21.403Z,57.35
2022-11-16T11:15:26.864Z,57.29
2022-11-16T11:18:17.162Z,57.08
2022-11-16T11:20:48.854Z,57.07
2022-11-16T11:23:20.266Z,56.94
2022-11-16T11:25:57.572Z,56.89
2022-11-16T11:28:28.704Z,56.57
2022-11-16T11:31:01.919Z,56.41
2022-11-16T11:33:35.776Z,56.47
2022-11-16T11:36:09.332Z,56.29
2022-11-16T11:38:57.633Z,56.26
2022-11-16T11:41:28.862Z,56.52
2022-11-16T11:44:05.265Z,56.94
2022-11-16T11:47:28.564Z,56.97
2022-11-16T11:49:33.865Z,57.19
2022-11-16T11:52:10.349Z,57.28
2022-11-16T11:54:46.021Z,57.42
2022-11-16T11:57:20.700Z,57.32
2022-11-16T11:59:52.837Z,57.26
2022-11-16T12:02:38.034Z,57.11
2022-11-16T12:05:35.008Z,56.91
2022-11-16T12:08:20.372Z,57.10
2022-11-16T12:10:53.897Z,57.12
2022-11-16T12:14:10.483Z,57.28
2022-11-16T12:16:48.813Z,57.12
2022-11-16T12:19:58.641Z,57.02
2022-11-16T12:29:28.245Z,56.76
2022-11-16T12:32:27.216Z,56.96
2022-11-16T12:38:35.612Z,56.70
2022-11-16T12:41:27.742Z,56.68
2022-11-16T12:44:04.422Z,56.57
2022-11-16T12:50:25.822Z,56.64
2022-11-16T12:56:17.716Z,56.04
2022-11-16T12:59:04.030Z,56.33
2022-11-16T13:01:40.193Z,56.20
2022-11-16T13:04:16.719Z,56.37
2022-11-16T13:06:51.997Z,56.18
2022-11-16T13:09:23.528Z,56.48
2022-11-16T13:11:58.786Z,56.18
2022-11-16T13:14:34.021Z,56.14
2022-11-16T13:17:05.015Z,55.99
2022-11-16T13:19:42.443Z,56.04
2022-11-16T13:22:17.473Z,56.07
2022-11-16T13:24:51.051Z,56.08
2022-11-16T13:27:38.097Z,56.21
2022-11-16T13:30:22.474Z,56.29
2022-11-16T13:33:15.775Z,56.86
2022-11-16T13:35:44.289Z,56.62
2022-11-16T13:38:16.465Z,56.61
2022-11-16T13:40:45.202Z,56.62
2022-11-16T13:43:20.456Z,56.65
2022-11-16T13:46:03.177Z,56.54
2022-11-16T13:48:38.884Z,56.61
2022-11-16T13:51:18.158Z,56.50
2022-11-16T13:56:51.780Z,56.50
2022-11-16T13:59:28.950Z,56.64
2022-11-16T14:02:01.451Z,56.17
2022-11-16T14:04:58.103Z,56.77
2022-11-16T14:07:46.577Z,56.43
2022-11-16T14:10:57.012Z,56.71
2022-11-16T14:13:40.297Z,56.54
2022-11-16T14:16:50.966Z,56.43
2022-11-16T14:19:58.392Z,56.44
2022-11-16T14:22:55.353Z,56.35
2022-11-16T14:25:47.152Z,56.50
2022-11-16T14:28:34.201Z,56.50
2022-11-16T14:31:17.979Z,56.24
2022-11-16T14:33:51.546Z,56.47
2022-11-16T14:36:41.449Z,56.39
2022-11-16T14:39:43.206Z,56.41
2022-11-16T14:42:20.637Z,56.50
2022-11-16T14:44:50.117Z,56.29
2022-11-16T14:47:28.741Z,56.12
2022-11-16T14:50:04.243Z,56.14
2022-11-16T14:55:49.725Z,56.33
2022-11-16T14:58:23.908Z,56.41
2022-11-16T15:00:58.858Z,56.29
2022-11-16T15:03:32.508Z,56.24
2022-11-16T15:06:10.161Z,56.32
2022-11-16T15:09:04.342Z,56.17
2022-11-16T15:11:59.871Z,56.09
2022-11-16T15:14:37.737Z,56.25
2022-11-16T15:17:11.001Z,56.19
2022-11-16T15:19:43.298Z,56.25
2022-11-16T15:25:05.621Z,56.13
2022-11-16T15:27:49.480Z,56.08
2022-11-16T15:30:22.885Z,55.98
2022-11-16T15:32:54.084Z,56.10
2022-11-16T15:35:49.685Z,56.03
2022-11-16T15:47:34.830Z,56.15
2022-11-16T15:50:11.418Z,56.02
2022-11-16T15:52:44.039Z,56.13
2022-11-16T16:01:20.730Z,56.41
2022-11-16T17:17:21.988Z,56.46
2022-11-16T18:02:00.240Z,56.91
2022-11-16T18:04:34.483Z,56.69
2022-11-16T18:07:06.654Z,56.63
2022-11-16T18:09:35.627Z,56.41
2022-11-16T18:12:04.060Z,56.80
2022-11-16T18:14:32.431Z,56.82
2022-11-16T18:17:13.794Z,56.87
2022-11-16T18:19:42.688Z,57.13
2022-11-16T18:22:12.049Z,56.99
2022-11-16T18:24:40.951Z,57.10
2022-11-16T18:27:10.345Z,57.06
2022-11-16T18:29:38.573Z,57.19
2022-11-16T18:32:12.160Z,57.27
2022-11-16T18:34:40.883Z,57.13
2022-11-16T18:37:09.539Z,57.48
2022-11-16T18:39:41.405Z,57.36
2022-11-16T18:42:14.391Z,57.61
2022-11-16T18:45:15.002Z,57.41
2022-11-16T18:48:12.219Z,57.62
2022-11-16T18:50:43.602Z,57.23
2022-11-16T18:53:15.927Z,57.80
2022-11-16T18:55:58.944Z,57.88
2022-11-16T18:58:50.413Z,58.28
2022-11-16T19:04:08.064Z,57.99
2022-11-16T19:06:36.938Z,57.96
2022-11-16T19:09:10.574Z,58.20
2022-11-16T19:17:05.488Z,58.16
2022-11-16T19:19:36.312Z,58.33
2022-11-16T19:22:05.116Z,58.16
2022-11-16T19:24:33.926Z,58.19
2022-11-16T19:32:59.633Z,58.30
2022-11-16T19:35:30.422Z,58.46
2022-11-16T19:38:00.489Z,58.22
2022-11-16T19:40:31.786Z,58.61
2022-11-16T19:43:01.364Z,58.01
2022-11-16T19:45:30.274Z,58.10
2022-11-16T19:47:59.292Z,58.15
2022-11-16T19:50:30.592Z,57.76
2022-11-16T19:53:04.985Z,58.32
2022-11-16T19:55:40.501Z,58.33
2022-11-16T19:58:08.777Z,58.50
2022-11-16T20:00:37.538Z,58.33
2022-11-16T20:03:11.809Z,58.33
2022-11-16T20:05:45.394Z,58.28
2022-11-16T20:08:14.203Z,57.95
2022-11-16T20:10:46.600Z,58.09
2022-11-16T20:13:15.192Z,57.93
2022-11-16T20:15:44.181Z,57.93
2022-11-16T20:18:13.007Z,57.92
2022-11-16T20:20:42.754Z,57.83
2022-11-16T20:23:11.151Z,57.70
2022-11-16T20:25:42.585Z,57.91
2022-11-16T20:28:11.997Z,58.08
2022-11-16T20:30:40.397Z,57.79
2022-11-16T20:33:10.270Z,57.76
2022-11-16T20:35:39.137Z,57.80
2022-11-16T20:38:22.276Z,57.70
2022-11-16T20:40:51.678Z,57.50
2022-11-16T20:46:39.941Z,57.62
2022-11-16T20:49:09.500Z,57.50
2022-11-16T20:51:42.513Z,57.36
2022-11-16T20:54:20.107Z,57.34
2022-11-16T20:56:51.417Z,57.33
2022-11-16T21:02:23.265Z,57.16
2022-11-16T21:05:00.797Z,56.97
2022-11-16T21:07:44.354Z,57.20
2022-11-16T21:10:21.883Z,56.73
2022-11-16T21:13:16.493Z,56.67
2022-11-16T21:15:44.953Z,56.76
2022-11-16T21:21:08.846Z,56.93
2022-11-16T21:27:32.521Z,56.69
2022-11-16T21:30:15.673Z,56.85
2022-11-16T21:35:44.723Z,56.99
2022-11-16T21:38:18.249Z,57.06
2022-11-16T21:41:04.917Z,57.33
2022-11-16T21:43:43.513Z,57.13
2022-11-16T21:56:24.894Z,57.22
2022-11-16T21:58:56.010Z,57.39
2022-11-16T23:42:37.442Z,59.23
